PETT   ATLETA SEX DATA CAT TEAM TEMPO GAP
  Donne - Unica  
1 597 TOSATO KARIN F 1979 DO PAVAN FREEBIKE 1h33:38.20
2 599 BIENATI SHERYL REGINA F 1991 DO LORIS BIKE 1h37:53.60 +4:15.40
3 181 CORTINOVIS CRISTINA F 1981 DO ASD RAGLIA TEAM 1h41:05.10 +7:26.90
4 576 DELLA VALLE ALESSIA F 1975 DO SKORPIONI 1h41:10.10 +7:31.90
5 478 BELLATTI SABRINA F 1964 DO ASD CLAMAS TEAM 1h42:29.60 +8:51.40
6 571 COVA SARA F 1970 DO GB JUNIOR 1h43:10.30 +9:32.10
7 83 BERTULETTI CRISTINA F 1966 DO ASD VALCERESIO BIKE 1h43:11.80 +9:33.60
8 603 SFORZA GIULIA F 1995 DO LORIS BIKE 1h43:21.10 +9:42.90
9 591 COLOMBO GAIA F 1991 DO MTB EVALOON 1h44:35.30 +10:57.10
10 25 BALLARE ALICE F 2002 DO HR TEAM 1h47:30.80 +13:52.60
11 508 PAULLI NICOLE F 2003 DO CASATELLEONE 1h55:51.00 +22:12.80
12 544 NISOLI DEBORA F 1978 DO SKORPIONI 1h58:17.20 +24:39.00
  Primavera | 14-16 anni  
1 353 BELTRAMI FRANCESCO M 2004 PR TEAM USLENGHI 1h41:16.80
2 312 RONCHESE CRISTIAN M 2004 PR TEAM USLENGHI 1h41:58.80 +42.00
3 529 FUSARO STEFANO M 2005 PR PAIRAGHESE 1h53:04.00 +11:47.20
  Debuttanti / Juniores | 17-29 anni  
1 7 BELTRAMI EDOARDO M 1994 DJ TEAM USLENGHI 1h22:46.80
2 542 DE BIASIO ANDREA M 1991 DJ MILANO CYCLING 1h22:55.80 +9.00
3 62 RONCORONI GIACOMO M 1993 DJ MTB FALCHI BLU 1h22:56.50 +9.70
4 537 RUGGIRELLO MIRKO M 1995 DJ DARRA RACING TEAM 1h23:11.30 +24.50
5 582 MOLINARI ANDREA M 1998 DJ POLIZIA MILANO 1h23:56.00 +1:09.20
6 602 UDA MICHAEL M 1990 DJ LORIS BIKE 1h24:25.50 +1:38.70
7 47 LARGHI ALESSANDRO M 1991 DJ ASD CLAMAS TEAM 1h24:43.30 +1:56.50
8 89 BARUFFI GABRIELE M 2000 DJ MTB FALCHI BLU 1h25:05.50 +2:18.70
9 514 VANTADORI OLIVER M 1999 DJ TEAM ALBY BIKE 1h28:32.70 +5:45.90
10 570 QUINTAVALLE LUCA M 1991 DJ BIKE INFINITY 1h28:43.50 +5:56.70
11 28 ANGLANA SIMONE M 1996 DJ GS PREALPINO 1h30:32.00 +7:45.20
12 541 AMBROSINI STEFANO M 1994 DJ SPACE BIKES 1h30:38.40 +7:51.60
13 563 BENINI DARIO M 2002 DJ TEAM BENINI NOVARA 1h34:46.20 +11:59.40
14 254 CASTINI STEFANO M 1990 DJ LORIS BIKE 1h34:48.40 +12:01.60
15 586 ASTORRI STEFANO M 1991 DJ GEMINI TEAM 1h36:54.90 +14:08.10
16 200 BALLACE ANDREA M 1993 DJ DOCTOR BIKE 1h36:56.60 +14:09.80
17 498 MELIS MATTIA M 2002 DJ S. MARTINO DI VALCUV 1h39:49.40 +17:02.60
18 199 ZANOTTI DAVIDE M 1993 DJ TEAM DOCTORBIKE 1h41:27.10 +18:40.30
19 560 MOTTA ANDREA M 2000 DJ MTB EVALOON 1h50:14.80 +27:28.00
20 235 PIZZOLATO ROBERTO M 1993 DJ TEAM DOCTORBIKE 1h57:59.70 +35:12.90
  Master 1 | 30-34 anni  
1 218 LECCADITO ROBERTO M 1989 M1 SKORPIONI 1h22:43.00
2 197 BRUSTIA DANIELE M 1988 M1 TEAM RCR PIANETA BIC 1h25:16.00 +2:33.00
3 489 GUIDELLI DIEGO M 1986 M1 CINGHIOS RACING TEAM 1h26:12.50 +3:29.50
4 38 CONFORTI ALESSANDRO M 1985 M1 TEAM MTB LOMAZZO 1h27:16.20 +4:33.20
5 534 MONDINI MARCO M 1985 M1 ASD CLAMAS TEAM 1h27:21.50 +4:38.50
6 518 RINALDI ANDREA M 1985 M1 TEAM SPARROW BIKE CL 1h27:37.70 +4:54.70
7 600 PELLEGRINO ALESSIO M 1987 M1 DUAL BIKE CANTU' 1h28:40.20 +5:57.20
8 45 GROTTI MARCO M 1987 M1 TEAM VIPER TICINO AS 1h29:49.20 +7:06.20
9 460 MARCELLI ANDREA M 1988 M1 GS MARCELLI ASD 1h32:02.20 +9:19.20
10 73 TREZZI ALBERTO M 1988 M1 MTB EVALOON 1h34:02.70 +11:19.70
11 610 GIACCHINO SALVATORE M 1987 M1 GS MARCELLI ASD 1h35:33.90 +12:50.90
12 155 RICCI MARCO M 1985 M1 TEAM BEE AND BIKE BR 1h36:23.40 +13:40.40
13 556 BARBIERI FABIO M 1985 M1 AIRBIKE CRAL ALENIA  1h37:06.60 +14:23.60
14 248 FINATTI DAVIDE M 1987 M1 PASSO LENTO ROVELLAS 1h38:27.60 +15:44.60
15 606 VILLA GIACOMO M 1989 M1 ROCK & ROAD BIKE FRT 1h40:16.40 +17:33.40
  Master 2 | 35-39 anni  
1 287 SALMOIRAGHI DIEGO M 1981 M2 ASD CLAMAS TEAM 1h22:14.30
2 41 D'AMBROS GIANLUCA M 1980 M2 TEAM VIPER TICINO AS 1h22:14.40 +0.10
3 566 MUSSOLIN ANREA M 1984 M2 BICI BIKE 93 1h22:14.50 +0.20
4 579 GRECO ROSARIO M 1981 M2 MAGICUNEO 1h24:47.20 +2:32.90
5 585 QUARTA ALBINO M 1982 M2 BICI BIKE 93 1h25:24.50 +3:10.20
6 517 LUBRANO GIORGIO M 1980 M2 TEAM SPARROW BIKE CL 1h25:38.50 +3:24.20
7 503 AGRINI ALESANDRO M 1980 M2 TEAM USLENGHI 1h25:49.70 +3:35.40
8 32 BIANCO MARCO M 1982 M2 CICLI BATTISTELLA MT 1h26:12.70 +3:58.40
9 482 CLIVIO MARCO M 1984 M2 TEAM VIPER TICINO AS 1h27:14.00 +4:59.70
10 33 BOZZINI PAOLO M 1980 M2 DARRA RACING TEAM 1h27:39.50 +5:25.20
11 40 CRAPIS JIMMY M 1982 M2 TEAM VIPER TICINO AS 1h27:47.50 +5:33.20
12 575 CIARINI MASSIMO M 1983 M2 TEAM ALL4CYCLING 1h28:33.20 +6:18.90
13 82 OLIVETO ANTONIO M 1982 M2 HR TEAM 1h33:17.70 +11:03.40
14 31 BELLONI ANDREA M 1982 M2 TEAM VIPER TICINO AS 1h33:34.20 +11:19.90
15 39 CONTE LUCA M 1982 M2 ASD CLAMAS TEAM 1h33:39.40 +11:25.10
16 488 ACERBI DAVIDE GIOVANNI M 1982 M2 US LEGNANESE 1h34:36.20 +12:21.90
17 58 MONDA ANTONIO M 1981 M2 MTB EVALOON 1h35:30.10 +13:15.80
18 44 GALLI STEFANO M 1982 M2 MTB EVALOON 1h35:31.10 +13:16.80
19 36 CIOLLI THOMAS M 1980 M2 US LEGNANESE 1h35:36.10 +13:21.80
20 465 DONEDA ALBERTO M 1981 M2 FTM TEAM 1h36:26.90 +14:12.60
21 37 CLIVIO ALESSANDRO M 1981 M2 TEAM VIPER TICINO AS 1h38:18.90 +16:04.60
22 69 SCORTI FABIO M 1982 M2 TEAM VIPER TICINO AS 1h40:27.60 +18:13.30
23 568 ARRABITO FABIO M 1980 M2 MTB FALCHI BLU 1h41:03.60 +18:49.30
24 548 GIANESIN ALESSIO M 1980 M2 ALBISOLA BIKE 1h41:43.10 +19:28.80
25 61 PONTI FABRIZIO M 1980 M2 TEAM VIPER TICINO AS 1h41:50.60 +19:36.30
26 473 ROGORA MASSIMILIANO M 1982 M2 MTB EVALOON 1h47:33.50 +25:19.20
27 484 CICCARDI ROBERTO M 1981 M2 MTB EVALOON 1h47:33.80 +25:19.50
28 468 DIMAGLI ROSARIO M 1983 M2 ASD G.S. SOLBIATESE 1h52:46.50 +30:32.20
29 481 MISI CLAUDIO M 1982 M2 MTB EVALOON 1h53:06.70 +30:52.40
  Master 3 | 40-44 anni  
1 573 RIZZOTTO CLAUDIO M 1977 M3 TEAM RCR PIANETA BIC 1h21:52.40
2 87 PIVOTTO CLAUDIO M 1979 M3 ASD CLAMAS TEAM 1h21:52.50 +0.10
3 57 MISURACA ANDREA M 1978 M3 GS MARCELLI ASD 1h22:27.50 +35.10
4 85 MISURACA ANTONIO M 1975 M3 GS MARCELLI ASD 1h22:27.80 +35.40
5 515 GARAMPAZZI MAURO M 1976 M3 AMD 1h23:38.50 +1:46.10
6 572 QUINTAVALLE LIVIO M 1976 M3 SPEED WHEEL 1h23:51.50 +1:59.10
7 11 SCALA ANDREA M 1979 M3 TEAM VIPER TICINO AS 1h24:30.80 +2:38.40
8 338 ISACCO COLOMBO M 1975 M3 HR TEAM 1h24:40.80 +2:48.40
9 495 IVO ORLANDI M 1977 M3 TEAM MTB LOMAZZO 1h26:00.30 +4:07.90
10 584 TRAVAGLINI MIRKO M 1978 M3 POLIZIA MILANO 1h26:42.00 +4:49.60
11 528 FUSARO SIMONE M 1975 M3 MTB EVALOON 1h26:51.70 +4:59.30
12 567 GIOZZI FABIO M 1979 M3 BICI BIKE 93 1h27:22.20 +5:29.80
13 524 BRACCO CARLO M 1977 M3 RAT RIDE ALL TERRAIN 1h28:01.00 +6:08.60
14 75 VECCHIO DAVIDE M 1977 M3 ASD AGRATE CONTURBIA 1h28:09.70 +6:17.30
15 233 RENELLA LUIGI M 1978 M3 LORIS BIKE 1h28:24.20 +6:31.80
16 64 ROSSINI ALBERTO M 1978 M3 TEAM USLENGHI 1h28:49.20 +6:56.80
17 334 MADDALENA DOMENICO M 1975 M3 SKORPIONI 1h29:23.20 +7:30.80
18 439 MASSARENTI MARCO M 1976 M3 MTB OLEGGIO 1h30:08.50 +8:16.10
19 68 SCHIEVENIN ANDREA M 1977 M3 TEAM VIPER TICINO AS 1h30:16.70 +8:24.30
20 74 VAROLI GIANLUCA M 1976 M3 MTB EVALOON 1h30:52.20 +8:59.80
21 590 BETTINELLI GIULIANO M 1978 M3 ASD VALCERESIO BIKE 1h31:18.00 +9:25.60
22 390 DONADIO MASSIMILIANO M 1975 M3 GS PREALPINO 1h31:20.20 +9:27.80
23 35 CAVA ADRIANO M 1977 M3 ASD CLAMAS TEAM 1h31:39.60 +9:47.20
24 18 MAFFIOLETTI GIANPIETRO M 1979 M3 ASD HELIOS 1h32:20.20 +10:27.80
25 555 ALFIERI STEFANO M 1978 M3 AIRBIKE CRAL ALENIA  1h32:32.90 +10:40.50
26 494 SCIRO' GIUSEPPE M 1978 M3 TEAM ALBY BIKE 1h33:29.90 +11:37.50
27 485 VERDERARE GIOVANNI M 1978 M3 CICLI BATTISTELLA MT 1h34:26.20 +12:33.80
28 63 ROSSI ANDREA M 1975 M3 TEAM VIPER TICINO AS 1h35:40.70 +13:48.30
29 557 QUAGLIANO DAVID M 1976 M3 ASD POLIZIA PENITENZ 1h35:43.70 +13:51.30
30 520 CASTIGLIONE SALVATORE M 1979 M3 ASD IL BICICLO TEAM  1h37:23.90 +15:31.50
31 91 CURRO' STEFANO M 1977 M3 TEAM USLENGHI 1h37:26.20 +15:33.80
32 492 VENEGONI MASSIMO M 1978 M3 HR TEAM 1h38:12.40 +16:20.00
33 500 ROSSI ANDREA M 1975 M3 GB JUNIOR 1h38:22.60 +16:30.20
34 51 MARMORALE MASSIMO M 1975 M3 TEAM BENINI NOVARA 1h38:55.90 +17:03.50
35 502 SANTORO LUCIO M 1978 M3 LISSONE MTB 1h39:10.40 +17:18.00
36 546 FARE' ANDREA M 1979 M3 RAT RIDE ALL TERRAIN 1h44:09.30 +22:16.90
37 607 PIOLETTI UMBERTO M 1975 M3 I VELOCIPEDI 1h44:39.80 +22:47.40
38 352 RUFFATO ANDREA M 1976 M3 NOVO TEAM 1h46:37.30 +24:44.90
39 467 MOLINARI ALESSANDRO M 1976 M3 ASD TEAM GREEN BIKE 1h49:33.30 +27:40.90
40 483 DEL VECCHIO LUIGI M 1976 M3 MTB EVALOON 1h50:10.30 +28:17.90
41 535 PELLEGRINI STEFANO M 1975 M3 ASD HELIOS 1h53:02.00 +31:09.60
42 464 COLOMBO ANDREA M 1977 M3 SKORPIONI 1h59:32.40 +37:40.00
43 77 VALASSINA BIKEHEART MARCO M 1977 M3 HR TEAM 2h04:41.40 +42:49.00
  Master 4 | 45-49 anni  
1 8 DELL' ANGELO MARCO M 1971 M4 TEAM USLENGHI 1h25:29.40
2 6 BRIGHENTI FABIO M 1972 M4 1h25:30.00 +0.60
3 24 BALLARE GABRIELE M 1972 M4 HR TEAM 1h26:03.80 +34.40
4 277 GIUDICE EMORIO M 1974 M4 EBS 1h27:25.00 +1:55.60
5 26 ALBRIZIO PIETRO M 1970 M4 LC BRUGHERIO DUE 1h29:42.70 +4:13.30
6 593 BRANCALEON DAVIDE M 1973 M4 ASD NEWSCICLISMO.COM 1h30:02.70 +4:33.30
7 553 VERGA MASSIMO M 1974 M4 TEAM MTB LOMAZZO 1h30:03.00 +4:33.60
8 594 LISCIANDRELLO FABIO M 1972 M4 TEAM ALBY BIKE 1h30:05.00 +4:35.60
9 300 BUZZETTI MAURO M 1972 M4 GS PREALPINO 1h30:10.70 +4:41.30
10 173 CRUSCO ATTILIO M 1973 M4 TEAM MTB LOMAZZO 1h30:45.70 +5:16.30
11 66 SARTO FRANCESCO M 1973 M4 HR TEAM 1h31:03.20 +5:33.80
12 43 GALBIATI ANDREA M 1971 M4 LC BRUGHERIO DUE 1h31:04.50 +5:35.10
13 10 VENTURINI PAOLO M 1973 M4 TEAM VIPER TICINO AS 1h31:59.40 +6:30.00
14 559 MACCHI MIRKO M 1974 M4 SKORPIONI 1h32:01.70 +6:32.30
15 569 LO BIANCO MARCO M 1973 M4 CICLI BATTISTELLA MT 1h32:17.90 +6:48.50
16 86 MISURACA FABRIZIO M 1970 M4 GS MARCELLI ASD 1h32:34.70 +7:05.30
17 49 LUONI EROS M 1972 M4 TEAM USLENGHI 1h32:48.20 +7:18.80
18 525 PELLEGRINI EMILIANO M 1970 M4 VELO CLUB SESTESE 1h32:57.90 +7:28.50
19 540 SINELLI FABRIZIO M 1972 M4 MWB 1h33:17.70 +7:48.30
20 522 DE VECCHI OMAR M 1974 M4 GEMINI TEAM 1h34:01.20 +8:31.80
21 523 DISCA GIANNI PIERO M 1971 M4 BICITIME RACING TEAM 1h34:50.70 +9:21.30
22 292 BRUGALI GIUSEPPE M 1973 M4 TEAM VIPER TICINO AS 1h35:06.40 +9:37.00
23 493 SCAPIN LUCA M 1973 M4 MTB EVALOON 1h36:09.40 +10:40.00
24 475 MURO MAURIZIO M 1974 M4 FORUM RACING TEAM 1h36:22.90 +10:53.50
25 510 CAVA MASSIMO M 1972 M4 ASD CLAMAS TEAM 1h36:41.40 +11:12.00
26 554 GORLA MARCO M 1973 M4 ASD EQUIPE CORBETTES 1h38:38.40 +13:09.00
27 536 MENAGGIA STEFANO M 1974 M4 TEAM ALBY BIKE 1h39:51.60 +14:22.20
28 504 MASTROGIUSEPPE GIANFRANCO M 1970 M4 VELOCLUB SEGRATE 1h41:34.60 +16:05.20
29 499 STEFANONI MARCO M 1973 M4 BICITIME RACING TEAM 1h41:55.90 +16:26.50
30 538 TUCCI MICHELE M 1974 M4 TEAM MTB LOMAZZO 1h42:29.60 +17:00.20
31 50 MACORIG LORENZO M 1970 M4 TEAM MTB LOMAZZO 1h46:59.10 +21:29.70
32 474 ROMA ROBERTO M 1974 M4 CICLI BATTISTELLA MT 1h47:30.00 +22:00.60
33 595 MELGRATI GIANLUIGI M 1970 M4 ASD HELIOS 1h48:18.30 +22:48.90
34 592 SCARDAMAGLIO TEODORO M 1973 M4 ASD POLIZIA PENITENZ 1h54:57.70 +29:28.30
35 558 BIANCO DONATELLO M 1973 M4 ASD POLIZIA PENITENZ 2h32:34.90 +1h07:05.50
  Master 5 | 50-54 anni  
1 604 TURSI MAURO M 1966 M5 LORIS BIKE 1h22:33.00
2 53 MARTINI ANDREA M 1966 M5 GA MARCELLI ASD 1h23:54.30 +1:21.30
3 613 CAZZATO ANTONIO M 1966 M5 ASD CLAMAS TEAM 1h25:21.50 +2:48.50
4 72 TOSI FABIO M 1968 M5 AIRBIKE CRAL ALENIA  1h25:37.00 +3:04.00
5 561 CORRADINI ATTILIO M 1966 M5 HR TEAM 1h26:19.70 +3:46.70
6 205 SORDI FABRIZIO M 1965 M5 LC BRUGHERIO DUE 1h26:26.50 +3:53.50
7 279 MIGLIAVACCA AURELIO M 1966 M5 HR TEAM 1h27:46.50 +5:13.50
8 550 FUMAGALLI MASSIMILIANO M 1968 M5 TRIANGOLO LARIANO 1h27:54.20 +5:21.20
9 491 CARLIN SANDRO M 1968 M5 MTB EVALOON 1h28:05.70 +5:32.70
10 521 MILANESI RUBEN M 1969 M5 TEAM MTB LOMAZZO 1h28:57.20 +6:24.20
11 189 BOGA DANILO M 1968 M5 NUOVA CICLOAMATORI C 1h29:03.70 +6:30.70
12 219 CASERTA LORENZO M 1966 M5 HR TEAM 1h29:53.20 +7:20.20
13 527 RAIMONDI ALBERTO M 1968 M5 TEAM SPARROW BIKE CL 1h29:57.00 +7:24.00
14 533 BACARELLA GIUSEPPE M 1968 M5 ASD CLAMAS TEAM 1h30:03.00 +7:30.00
15 549 BALLOTTA ALBERTO M 1968 M5 SKORPIONI 1h30:06.70 +7:33.70
16 56 MILANATO VALERIO M 1968 M5 TEAM MTB LOMAZZO 1h31:23.20 +8:50.20
17 519 CREMONA GIACOMO M 1966 M5 ASD CLAMAS TEAM 1h31:48.20 +9:15.20
18 331 PIATTO ALESSIO M 1969 M5 NOVO TEAM 1h31:58.40 +9:25.40
19 470 RICIPUTO STEFANO M 1969 M5 TEAM USLENGHI 1h32:10.20 +9:37.20
20 480 FERRAZZINI GIUSEPPE M 1966 M5 SKORPIONI 1h32:30.20 +9:57.20
21 14 CELOZZI BIAGIO M 1968 M5 HR TEAM 1h33:22.20 +10:49.20
22 29 ARRIGONI GIANLUIGI M 1967 M5 TEAM BENINI NOVARA 1h33:37.90 +11:04.90
23 476 SANTORO MAURO M 1966 M5 BUSTO GAROLFO 1h33:52.70 +11:19.70
24 509 SGARBI STEFANO M 1968 M5 GS NEW BIKE 1h35:54.90 +13:21.90
25 490 VALCARCELLI DANIELE M 1969 M5 VIRIS LOMELLINA ASD 1h36:04.90 +13:31.90
26 507 FIUMANÒ CARMELO M 1968 M5 CASTELLEONE 1h36:30.20 +13:57.20
27 589 TRENTIN MAURO M 1969 M5 SKORPIONI 1h36:37.90 +14:04.90
28 65 SAIBENI GIUSEPPE M 1966 M5 MTB EVALOON 1h36:38.70 +14:05.70
29 608 MATELETTI FABIO M 1968 M5 MTB EVALOON 1h39:37.40 +17:04.40
30 469 SERAFINI MAURO M 1967 M5 DARRA RACING TEAM 1h40:09.10 +17:36.10
31 303 ZADRA MAURIZIO M 1968 M5 TENATESE DAL MOLIN 1h41:01.40 +18:28.40
32 506 VERRENGIA ITALO M 1968 M5 DAMARZO 1h41:23.80 +18:50.80
33 487 FERRO STEFANO M 1966 M5 G.C. MORTARA 1h42:32.80 +19:59.80
34 581 FALCONATI ANGELO M 1968 M5 FUNTOS BIKE 1h43:02.10 +20:29.10
35 46 IANNICELLI TONY M 1968 M5 TEAM 2 RUOTE GIUSSAN 1h43:20.10 +20:47.10
36 564 ZOCCHI FABRIZIO M 1968 M5 MTB EVALOON 1h44:02.30 +21:29.30
37 574 BURANI GIOVANNI M 1966 M5 ASD POLIZIA PENITENZ 1h44:06.30 +21:33.30
38 17 FAGGIN ANDREA M 1966 M5 ASD AGRATE CONTURBIA 1h44:20.80 +21:47.80
39 609 BERIGLIA KATIA M 1965 M5 MTB EVALOON 1h45:12.10 +22:39.10
40 472 SANTESSO RINO M 1966 M5 ACSI PAVIA 1h45:57.80 +23:24.80
41 614 PIURI ANGELO M 1965 M5 TEAM USLENGHI 1h47:16.50 +24:43.50
42 588 CASIRAGHI IVANO M 1965 M5 SKORPIONI 1h47:44.80 +25:11.80
43 605 TREZZI ROBERTO M 1966 M5 GB JUNIOR 1h49:14.80 +26:41.80
44 552 BOVO STEFANO M 1969 M5 ASD I VELOCIPEDI 1h51:23.80 +28:50.80
45 13 RUFFINI DAVIDE M 1966 M5 MTB EVALOON 1h51:47.00 +29:14.00
46 88 TERRUSO NATALE M 1967 M5 MX PROJECT 1h52:09.20 +29:36.20
47 90 GERACI SALVATORE M 1966 M5 TEAM BICIMANIA 1h54:40.00 +32:07.00
48 526 CASCIOLI FEDERICO M 1966 M5 HR TEAM 1h58:02.00 +35:29.00
49 511 MESSINA GIOVANNI M 1966 M5 DOCTOR BIKE 2h34:11.60 +1h11:38.60
  Master 6 | 55-59 anni  
1 428 MANZONI ROBERTO M 1963 M6 XBIKE 1h25:18.00
2 198 IACONELLI SERGIO M 1964 M6 FIGHT VIELLE 1h26:10.20 +52.20
3 78 VILUPPI CLAUDIO M 1962 M6 MTB EVALOON 1h28:14.00 +2:56.00
4 551 GARGANTINI GIANCARLO M 1962 M6 TRIANGOLO LARIANO 1h28:57.00 +3:39.00
5 341 GIORDANO GIAN MARCO M 1960 M6 MTB OLEGGIO 1h32:40.70 +7:22.70
6 516 BELLONI ERCOLINO M 1963 M6 AUTOFFICINA ITALO 1h34:21.40 +9:03.40
7 16 MUSCA CARMELO M 1963 M6 ASD AGRATE CONTURBIA 1h35:50.60 +10:32.60
8 477 CURIONI MAURO M 1964 M6 MTB EVALOON 1h37:25.70 +12:07.70
9 80 VERZENI GIOVANNI M 1962 M6 HR TEAM 1h38:11.90 +12:53.90
10 587 CHIARELLO GIANNI M 1963 M6 SKORPIONI 1h38:16.10 +12:58.10
11 52 MARTINELLO VANNI M 1961 M6 TEAM VIPER TICINO AS 1h38:51.60 +13:33.60
12 601 PISTORE MAURIZIO M 1961 M6 TEAM ALBY BIKE 1h39:11.10 +13:53.10
13 532 PINESSI MARCO M 1963 M6 LISSONE MTB 1h40:22.60 +15:04.60
14 486 CORATTI CARLO M 1961 M6 G.C. MORTARA 1h42:19.80 +17:01.80
15 565 FESTA EMANUELE M 1963 M6 CICLI BATTISTELLA MT 1h43:28.60 +18:10.60
16 84 MASCIOCCHI ROBERTO M 1964 M6 BIKETEAM SEREGNO 1h44:30.80 +19:12.80
17 580 MORONI GIAMPIERO M 1963 M6 SKORPIONI 1h45:43.10 +20:25.10
18 578 REGONDI FRANCO M 1961 M6 TEAM SCOUTBIKE.COM 1h48:11.50 +22:53.50
19 54 MELI ALESSANDRO M 1964 M6 TEAM VIPER TICINO AS 1h49:38.00 +24:20.00
20 543 POLINI FABIO M 1963 M6 MTB EVALOON 1h50:49.80 +25:31.80
21 547 MASTURINI EDUARDO JORGE M 1961 M6 MTB EVALOON 1h59:36.90 +34:18.90
22 76 VERNUCCIO ALESSANDRO M 1961 M6 HR TEAM 2h05:52.10 +40:34.10
  Master 7+ | Over 60 anni  
1 403 PIROZZINI LUCIO M 1952 M7+ AVZATE MRG 1h28:25.20
2 256 SUCCU GIANNINO M 1955 M7+ TEAM USLENGHI 1h33:07.90 +4:42.70
3 479 SCANZIANI ANTONIO M 1958 M7+ TEAM USLENGHI 1h33:08.40 +4:43.20
4 583 MOLINARI GIACOMO M 1955 M7+ POLIZIA MILANO 1h34:17.90 +5:52.70
5 317 PROVINO ANTONIO M 1959 M7+ ASD TEAM GREEN BIKE 1h34:22.40 +5:57.20
6 512 VILLA ELIO M 1956 M7+ POLIZIA MILANO 1h34:27.40 +6:02.20
7 471 BOLCHINI MASSIMO M 1957 M7+ DARRA RACING TEAM 1h35:47.20 +7:22.00
8 93 BUSCHINI FAUSTO M 1957 M7+ LORIS BIKE 1h36:46.60 +8:21.40
9 530 COSTA FRANCESCO M 1959 M7+ SWATT CLUB 1h40:26.60 +12:01.40
10 496 GANDOLFI GRAZIANO M 1951 M7+ MTB EVALOON 1h40:43.10 +12:17.90
11 545 ROSA ROBERTO M 1954 M7+ MTB EVALOON 1h42:35.30 +14:10.10
12 562 BALLARE GIOVANNI M 1946 M7+ HR TEAM 1h42:48.60 +14:23.40
13 27 ALFIERI UMBERTO M 1957 M7+ TEAM USLENGHI 1h42:57.80 +14:32.60
14 539 PIGLIAFREDDO SERGIO M 1954 M7+ CICLI BATTISTELLA MT 1h43:30.10 +15:04.90
15 466 GRASSI EGIDIO LUIGI M 1951 M7+ CICLI BATTISTELLA MT 1h43:30.60 +15:05.40
16 531 DI CRISTOFALO M 1953 M7+ SKORPIONI 1h44:13.10 +15:47.90
17 501 LANDONI DANTE M 1957 M7+ ASD HELIOS 1h46:05.10 +17:39.90
18 513 MARCELLI GIANANTONIO M 1959 M7+ GS MARCELLI ASD 1h54:26.50 +26:01.30
19 612 MISURACA SALVATORE M 1946 M7+ GS MARCELLI ASD 2h13:56.30 +45:31.10
  Escursionisti / e-bikers  
1 1067 GRISETTI ALBERTO M 1966 CT 1h34:10.20
2 1110 GIRARDINI NICOLA M 1980 CT 1h35:17.60 +1:07.40
3 1100 FUMAGALLI MAURO M 1963 CT 1h38:44.10 +4:33.90
4 1133 ZAFFARONI ROMANO M 1962 CT 1h38:47.40 +4:37.20
5 1090 RABAIOLI MARCELLO RICCARDO M 1994 CT 1h38:48.40 +4:38.20
6 1137 MOLLA LUCA M 1977 CT 1h39:51.10 +5:40.90
7 1121 BARGIGGIA DAVIDE M 1966 CT 1h41:45.30 +7:35.10
8 1131 OLIVERIO DOMENICO M 1990 CT 1h42:01.60 +7:51.40
9 1101 CARLO STRADELLA M 1989 CT 1h43:17.60 +9:07.40
10 1079 LERIANI PIETRO M 1995 CT 1h44:00.80 +9:50.60
11 1001 RONDENA MARK M 1979 CT 1h44:31.30 +10:21.10
12 1089 CASTELLI ALBERTO M 1967 CT 1h44:31.80 +10:21.60
13 1122 ZUCCHI IVAN ANDREA M 1985 CT 1h44:48.80 +10:38.60
14 1115 FACHINETTI MARCO M 1977 CT 1h44:51.00 +10:40.80
15 1128 CATTANEO LUCA M 1972 CT 1h46:08.00 +11:57.80
16 1125 FERRARI STEFANO M 1974 CT 1h46:08.30 +11:58.10
17 1134 GALLUI VITO M 1972 CT 1h46:08.50 +11:58.30
18 1127 FREGONI SILVIO M 1976 CT 1h46:08.80 +11:58.60
19 12 GREGUOLDO STEFANO M 1966 CT MTB EVALOON 1h46:50.80 +12:40.60
20 1071 GIACOMAZZI GIOVANNI M 1973 CT 1h47:19.80 +13:09.60
21 1072 RABONI LUCA ERNESTO M 1967 CT 1h47:41.50 +13:31.30
22 1135 QUOCHI LEONARDO M 1982 CT 1h49:15.50 +15:05.30
23 1103 PATROLINO FABRIZIO M 1992 CT 1h49:43.80 +15:33.60
24 1030 NALDI MAURIZIO M 1969 CT 1h50:01.00 +15:50.80
25 1088 BESANA STEFANO M 1968 CT 1h50:22.30 +16:12.10
26 1093 PINI MASSIMO M 1966 CT 1h50:33.50 +16:23.30
27 1068 PANTE' ANDREA M 1964 CT 1h50:33.80 +16:23.60
28 1108 BOMAS MARCO M 1966 CT 1h50:34.30 +16:24.10
29 1109 BENASSINI STEFANO M 1967 CT 1h52:25.00 +18:14.80
30 1091 COLISELLO GUIDO M 1977 CT 1h52:30.00 +18:19.80
31 1065 POZZI MATTEO M CT 1h52:57.70 +18:47.50
32 1113 RADAELLI RICCARDO M CT 1h52:58.20 +18:48.00
33 1114 ANGARONI ENRICO M CT 1h53:15.00 +19:04.80
34 1 FERRARIO GIANNI M 1968 CT HR TEAM 1h53:38.50 +19:28.30
35 1140 TASSIELIO MATTEO M 1980 CT 1h53:48.00 +19:37.80
36 1092 VACCA GIUSEPPE M 1963 CT 1h56:14.50 +22:04.30
37 1084 BERETTA GIANLUIGI M 1962 CT 1h56:29.90 +22:19.70
38 1105 MIGLIAVACCA LUCA M 1977 CT 1h56:45.00 +22:34.80
39 1082 CHEZZI MANUEL M 1989 CT 1h58:54.40 +24:44.20
40 1096 TERRANOVA MARCO M 1984 CT 1h59:47.40 +25:37.20
41 1130 DAMIANO ROSSINI M 1971 CT 2h00:28.40 +26:18.20
42 1123 CASNAGHI MICHELE M CT 2h01:28.40 +27:18.20
43 1117 CASTELLI MASSIMO M 1978 CT 2h01:39.20 +27:29.00
44 1112 RADAELLI MARINO M CT 2h01:43.70 +27:33.50
45 1069 GUIZZARDI ALICE F 1994 CT 2h02:10.60 +28:00.40
46 1080 BERGONTI MARIO M 1960 CT 2h02:20.90 +28:10.70
47 1132 MOOS MANUELA F 1971 CT 2h03:16.60 +29:06.40
48 1087 BOLGIARI ALBERTO M 1960 CT 2h03:20.70 +29:10.50
49 1107 BALSAMA' OSCAR M 1980 CT 2h03:45.10 +29:34.90
50 1010 PORTONI ANDREA M 1983 CT 2h05:43.40 +31:33.20
51 1143 DAGHERO BRUNO M 1983 CT 2h05:47.90 +31:37.70
52 1106 DDATTOLICO EMANUELE M 1985 CT 2h05:52.40 +31:42.20
53 1136 SALERNO ALEX M 1985 CT 2h05:55.10 +31:44.90
54 1124 CRINI SALVATORE M 1992 CT 2h06:14.60 +32:04.40
55 1095 RE FRASCHINI ALBERTO M 1978 CT 2h06:28.90 +32:18.70
56 1104 PIGOZZI MATTIA M 1989 CT 2h07:37.40 +33:27.20
57 1102 GALIZIA GIORGIO M 1985 CT 2h07:37.80 +33:27.60
58 611 PIAZZA ALESSANDRO M 1977 CT BERTI 2h08:13.10 +34:02.90
59 1066 GALBIATI CLAUDIO M CT 2h09:15.30 +35:05.10
60 1111 BRICALLI DAVIDE M CT 2h09:51.30 +35:41.10
61 1119 GIUDICI STEFANO M 1994 CT 2h09:55.80 +35:45.60
62 1081 GIRASOLE MAURIZIO M 1960 CT 2h10:19.80 +36:09.60
63 1077 RUSSILLO DAVIDE M CT 2h11:35.10 +37:24.90
64 1118 RIPAMONTI FABIO M 1976 CT 2h11:52.10 +37:41.90
65 1139 RAIMONDI ALESSANDRA F 1992 CT 2h12:39.10 +38:28.90
66 1075 PASSAFARO MATTEO M 1979 CT 2h13:59.10 +39:48.90
67 1129 INCARDONA ANGELO M 1981 CT 2h14:21.50 +40:11.30
68 1120 BRIGALLI PAOLO M 1994 CT 2h18:57.70 +44:47.50
69 1076 OSTUNI VINCENZO M 1970 CT 2h19:04.30 +44:54.10
70 1141 RAIMONDI ROBERTO M 1978 CT 2h19:40.80 +45:30.60
71 1144 RABOTTINI FABIO M 1983 CT 2h19:41.50 +45:31.30
72 1145 BISOGLIO FRANCESCO M 1981 CT 2h19:43.00 +45:32.80
73 1094 BORRONI MAURO M 1965 CT 2h20:52.70 +46:42.50
74 1097 PALAZZO ANDREA M 1976 CT 2h21:13.00 +47:02.80
75 1083 COSSO MARISA F 1976 CT 2h25:08.40 +50:58.20
76 1086 RABAIOLI RENATO M 1957 CT 2h25:34.70 +51:24.50
77 1098 PALAZZO FRANCO M 1970 CT 2h25:40.90 +51:30.70
78 1085 RADAELLI LAURA F 1967 CT 2h28:01.70 +53:51.50
79 1074 RIZZO STEFANIA F CT 2h32:31.40 +58:21.20
80 1073 GORI GIORGIO M CT 2h32:37.60 +58:27.40
81 1126 PRIMOLI CHRISTIAN M 1992 CT 2h32:38.90 +58:28.70